Tilting At Windmills — VLV2465 — position and weather

sailwx.info

Track history (hours):
 
Tides and Currents Weather Stations Pressure Air Temp Water Temp Dewpoint Dewpoint Depression Visibility Wind Speed Wind Dir Waves Ship Positions

Tilting At Windmills

Last reported at 2018-Jun-26 17:40 UTC. Time now 2018-Aug-14 07:01 UTC.
Position N 39°34' E 002°38'.
Warning: this ship's position is 48 days out of date.

Length 13 m.

Type: Sailing vessel. MMSI: 503155900.

Date/timePositionNaut miles runAvg speedWind from/ knotsBaromVisibWave heightAir tempDewpointWater temp
2018-Jun-26 17:40N 39°34' E 002°38'1 4.2
2018-Jun-26 17:29N 39°33' E 002°38'1 2.6
2018-Jun-26 16:57N 39°32' E 002°37'4 4.2
2018-Jun-26 16:00N 39°29' E 002°34'3 5.7
2018-Jun-26 15:29N 39°27' E 002°31'52 5.3
2018-Jun-26 05:47N 38°59' E 001°35'1 5.4
2018-Jun-26 05:30N 38°59' E 001°33'0 0.0
2018-Jun-25 20:50N 38°59' E 001°32'0 0.0
2018-Jun-25 20:27N 38°59' E 001°32'0 0.0
2018-Jun-25 19:58N 38°59' E 001°32'0 0.0
2018-Jun-25 19:28N 38°59' E 001°32'0 0.0
2018-Jun-25 19:00N 38°59' E 001°32'0 0.2
2018-Jun-25 18:26N 38°59' E 001°32'0 0.0
2018-Jun-25 17:57N 38°59' E 001°32'0 0.1
2018-Jun-25 17:26N 38°59' E 001°32'0 0.1
2018-Jun-25 16:59N 38°59' E 001°32'0 0.8
2018-Jun-25 16:28N 38°59' E 001°32'1 2.0
2018-Jun-25 15:59N 38°58' E 001°32'1 1.3
2018-Jun-25 15:28N 38°57' E 001°32'3 1.8
2018-Jun-25 14:03N 38°55' E 001°29'0 1.9
2018-Jun-25 13:58N 38°55' E 001°29'1 1.6
2018-Jun-25 13:28N 38°55' E 001°28'1 1.7
2018-Jun-25 12:58N 38°54' E 001°28'6 2.5
2018-Jun-25 10:31N 38°59' E 001°32'0 0.0
2018-Jun-25 10:28N 38°59' E 001°32'0 0.0
2018-Jun-25 09:58N 38°59' E 001°32'0 0.0
2018-Jun-25 09:28N 38°59' E 001°32'0 0.2
2018-Jun-25 08:58N 38°59' E 001°32'0 0.2
2018-Jun-25 08:28N 38°59' E 001°32'1 2.6
2018-Jun-25 08:00N 38°58' E 001°32'3 3.9
2018-Jun-25 07:09N 38°55' E 001°29'1 4.7
2018-Jun-25 06:57N 38°55' E 001°28'  
Track history (hours):
 
Tides and Currents Weather Stations Pressure Air Temp Water Temp Dewpoint Dewpoint Depression Visibility Wind Speed Wind Dir Waves Ship Positions

Tilting At Windmills

Last reported at 2018-Jun-26 17:40 UTC. Time now 2018-Aug-14 07:01 UTC.
Position N 39°34' E 002°38'.
Warning: this ship's position is 48 days out of date.

Length 13 m.

Type: Sailing vessel. MMSI: 503155900.

Date/timePositionNaut miles runAvg speedWind from/ knotsBaromVisibWave heightAir tempDewpointWater temp
2018-Jun-26 17:40N 39°34' E 002°38'1 4.2
2018-Jun-26 17:29N 39°33' E 002°38'1 2.6
2018-Jun-26 16:57N 39°32' E 002°37'4 4.2
2018-Jun-26 16:00N 39°29' E 002°34'3 5.7
2018-Jun-26 15:29N 39°27' E 002°31'52 5.3
2018-Jun-26 05:47N 38°59' E 001°35'1 5.4
2018-Jun-26 05:30N 38°59' E 001°33'0 0.0
2018-Jun-25 20:50N 38°59' E 001°32'0 0.0
2018-Jun-25 20:27N 38°59' E 001°32'0 0.0
2018-Jun-25 19:58N 38°59' E 001°32'0 0.0
2018-Jun-25 19:28N 38°59' E 001°32'0 0.0
2018-Jun-25 19:00N 38°59' E 001°32'0 0.2
2018-Jun-25 18:26N 38°59' E 001°32'0 0.0
2018-Jun-25 17:57N 38°59' E 001°32'0 0.1
2018-Jun-25 17:26N 38°59' E 001°32'0 0.1
2018-Jun-25 16:59N 38°59' E 001°32'0 0.8
2018-Jun-25 16:28N 38°59' E 001°32'1 2.0
2018-Jun-25 15:59N 38°58' E 001°32'1 1.3
2018-Jun-25 15:28N 38°57' E 001°32'3 1.8
2018-Jun-25 14:03N 38°55' E 001°29'0 1.9
2018-Jun-25 13:58N 38°55' E 001°29'1 1.6
2018-Jun-25 13:28N 38°55' E 001°28'1 1.7
2018-Jun-25 12:58N 38°54' E 001°28'6 2.5
2018-Jun-25 10:31N 38°59' E 001°32'0 0.0
2018-Jun-25 10:28N 38°59' E 001°32'0 0.0
2018-Jun-25 09:58N 38°59' E 001°32'0 0.0
2018-Jun-25 09:28N 38°59' E 001°32'0 0.2
2018-Jun-25 08:58N 38°59' E 001°32'0 0.2
2018-Jun-25 08:28N 38°59' E 001°32'1 2.6
2018-Jun-25 08:00N 38°58' E 001°32'3 3.9
2018-Jun-25 07:09N 38°55' E 001°29'1 4.7
2018-Jun-25 06:57N 38°55' E 001°28'  

Dump ship's entire track history